createdAt,value
2019-02-12T00:01:56.827Z,101854.94
2019-02-12T00:03:58.233Z,101857.99
2019-02-12T00:05:59.893Z,101844.66
2019-02-12T00:08:01.369Z,101854.42
2019-02-12T00:10:04.893Z,101845.50
2019-02-12T00:12:06.298Z,101852.15
2019-02-12T00:14:07.688Z,101862.23
2019-02-12T00:16:09.096Z,101865.02
2019-02-12T00:18:10.451Z,101855.23
2019-02-12T00:20:11.816Z,101857.52
2019-02-12T00:22:13.204Z,101851.66
2019-02-12T00:24:14.632Z,101853.77
2019-02-12T00:26:16.016Z,101859.12
2019-02-12T00:28:17.416Z,101853.94
2019-02-12T00:30:18.776Z,101844.84
2019-02-12T00:32:20.195Z,101848.06
2019-02-12T00:34:21.560Z,101854.43
2019-02-12T00:36:22.927Z,101857.00
2019-02-12T00:38:24.352Z,101851.63
2019-02-12T00:40:25.784Z,101845.63
2019-02-12T00:42:27.362Z,101843.35
2019-02-12T00:44:28.791Z,101853.09
2019-02-12T00:46:30.201Z,101850.98
2019-02-12T00:48:31.517Z,101849.38
2019-02-12T00:50:32.875Z,101847.09
2019-02-12T00:52:34.396Z,101850.04
2019-02-12T00:54:35.769Z,101845.13
2019-02-12T00:56:37.168Z,101834.25
2019-02-12T00:58:38.570Z,101853.62
2019-02-12T01:00:39.946Z,101841.56
2019-02-12T01:02:41.310Z,101848.08
2019-02-12T01:04:42.769Z,101846.61
2019-02-12T01:06:44.132Z,101850.20
2019-02-12T01:08:45.513Z,101852.81
2019-02-12T01:10:46.924Z,101861.75
2019-02-12T01:12:48.306Z,101865.00
2019-02-12T01:14:49.656Z,101860.16
2019-02-12T01:16:51.054Z,101864.52
2019-02-12T01:18:52.420Z,101865.67
2019-02-12T01:20:53.816Z,101868.09
2019-02-12T01:22:55.171Z,101868.11
2019-02-12T01:24:56.531Z,101876.05
2019-02-12T01:26:57.946Z,101884.99
2019-02-12T01:28:59.342Z,101890.22
2019-02-12T01:31:00.695Z,101884.03
2019-02-12T01:33:02.115Z,101889.38
2019-02-12T01:35:05.104Z,101877.36
2019-02-12T01:37:06.640Z,101877.84
2019-02-12T01:39:10.297Z,101888.25
2019-02-12T01:41:11.661Z,101882.86
2019-02-12T01:43:13.067Z,101885.47
2019-02-12T01:45:14.474Z,101886.47
2019-02-12T01:47:16.050Z,101902.89
2019-02-12T01:49:17.421Z,101892.14
2019-02-12T01:51:18.797Z,101895.05
2019-02-12T01:53:20.180Z,101894.59
2019-02-12T01:55:21.554Z,101903.52
2019-02-12T01:57:22.917Z,101898.14
2019-02-12T01:59:24.316Z,101902.22
2019-02-12T02:01:25.696Z,101902.06
2019-02-12T02:03:27.066Z,101902.38
2019-02-12T02:05:28.466Z,101908.23
2019-02-12T02:07:29.834Z,101907.77
2019-02-12T02:09:31.257Z,101914.43
2019-02-12T02:11:32.672Z,101915.23
2019-02-12T02:13:34.145Z,101921.42
2019-02-12T02:15:35.537Z,101929.56
2019-02-12T04:10:48.537Z,102046.16
2019-02-12T04:12:49.923Z,102045.80
2019-02-12T04:14:51.313Z,102052.62
2019-02-12T04:16:52.759Z,102051.65
2019-02-12T04:18:54.153Z,102051.13
2019-02-12T04:20:55.508Z,102042.52
2019-02-12T04:22:56.911Z,102044.63
2019-02-12T04:24:58.289Z,102055.86
2019-02-12T04:26:59.653Z,102049.54
2019-02-12T04:29:01.262Z,102044.77
2019-02-12T04:31:02.762Z,102043.34
2019-02-12T04:33:04.189Z,102038.09
2019-02-12T04:35:05.679Z,102038.56
2019-02-12T04:37:07.170Z,102044.59
2019-02-12T04:39:08.536Z,102039.87
2019-02-12T04:41:09.930Z,102035.66
2019-02-12T04:43:11.363Z,102035.35
2019-02-12T04:45:12.739Z,102032.41
2019-02-12T04:47:14.132Z,102033.89
2019-02-12T04:49:15.513Z,102036.92
2019-02-12T04:51:16.948Z,102043.11
2019-02-12T04:53:18.347Z,102054.00
2019-02-12T04:55:19.756Z,102059.06
2019-02-12T04:57:21.241Z,102061.32
2019-02-12T04:59:22.613Z,102063.09
2019-02-12T05:01:24.022Z,102072.02
2019-02-12T05:03:25.413Z,102064.27
2019-02-12T05:05:26.889Z,102057.25
2019-02-12T05:07:28.287Z,102065.40
2019-02-12T05:09:34.866Z,102063.94
2019-02-12T05:11:36.228Z,102061.50
2019-02-12T05:13:37.626Z,102061.95
2019-02-12T05:15:39.047Z,102069.91
2019-02-12T05:17:40.444Z,102066.38
2019-02-12T05:19:41.824Z,102069.14
2019-02-12T05:21:43.210Z,102070.28
2019-02-12T05:23:44.590Z,102068.16
2019-02-12T05:25:45.981Z,102070.91
2019-02-12T05:27:47.514Z,102071.09
2019-02-12T05:29:48.893Z,102076.61
2019-02-12T05:31:50.258Z,102088.33
2019-02-12T05:33:51.701Z,102085.42
2019-02-12T05:35:53.036Z,102090.63
2019-02-12T05:37:54.458Z,102083.80
2019-02-12T05:39:55.823Z,102085.09
2019-02-12T05:41:57.208Z,102087.37
2019-02-12T05:43:58.623Z,102089.47
2019-02-12T05:46:00.014Z,102091.10
2019-02-12T05:48:01.843Z,102085.74
2019-02-12T05:50:08.429Z,102076.83
2019-02-12T05:52:09.822Z,102085.42
2019-02-12T05:54:11.219Z,102084.45
2019-02-12T05:56:12.659Z,102096.00
2019-02-12T05:58:14.051Z,102093.72
2019-02-12T06:00:19.327Z,102095.38
2019-02-12T06:02:21.095Z,102090.95
2019-02-12T06:04:22.506Z,102100.22
2019-02-12T06:06:23.993Z,102104.16
2019-02-12T06:08:25.413Z,102103.53
2019-02-12T06:10:26.807Z,102110.84
2019-02-12T06:12:28.231Z,102114.11
2019-02-12T06:14:29.616Z,102120.30
2019-02-12T06:16:31.010Z,102115.57
2019-02-12T06:18:32.403Z,102127.80
2019-02-12T06:20:33.788Z,102119.31
2019-02-12T06:22:35.184Z,102129.39
2019-02-12T06:24:36.590Z,102125.67
2019-02-12T06:26:37.953Z,102119.81
2019-02-12T06:28:39.302Z,102134.92
2019-02-12T06:30:41.024Z,102132.97
2019-02-12T06:32:42.392Z,102129.41
2019-02-12T06:34:43.761Z,102134.45
2019-02-12T06:36:45.162Z,102137.23
2019-02-12T06:38:46.559Z,102148.42
2019-02-12T06:40:48.087Z,102145.83
2019-02-12T06:42:49.459Z,102157.22
2019-02-12T06:44:50.830Z,102152.64
2019-02-12T06:46:52.226Z,102159.14
2019-02-12T06:48:53.598Z,102167.27
2019-02-12T06:50:54.987Z,102172.48
2019-02-12T06:52:56.356Z,102179.61
2019-02-12T06:54:57.720Z,102179.97
2019-02-12T06:56:59.317Z,102180.95
2019-02-12T06:59:00.749Z,102182.73
2019-02-12T07:01:02.164Z,102188.47
2019-02-12T07:03:12.817Z,102192.05
2019-02-12T07:05:14.179Z,102195.45
2019-02-12T07:07:30.509Z,102193.34
2019-02-12T07:09:37.606Z,102191.72
2019-02-12T07:12:16.369Z,102196.75
2019-02-12T07:14:35.487Z,102194.80
2019-02-12T07:17:09.961Z,102207.16
2019-02-12T07:19:22.865Z,102212.52
2019-02-12T07:21:32.821Z,102219.75
2019-02-12T07:23:57.587Z,102219.11
2019-02-12T07:26:25.844Z,102228.34
2019-02-12T07:28:52.322Z,102232.30
2019-02-12T07:31:22.296Z,102234.88
2019-02-12T07:33:35.409Z,102235.68
2019-02-12T07:36:17.250Z,102240.07
2019-02-12T07:38:53.403Z,102244.59
2019-02-12T07:41:21.178Z,102247.02
2019-02-12T07:43:58.881Z,102250.91
2019-02-12T07:46:14.801Z,102253.98
2019-02-12T07:48:21.869Z,102250.06
2019-02-12T07:50:40.965Z,102266.33
2019-02-12T07:52:48.077Z,102261.15
2019-02-12T07:55:19.313Z,102267.68
2019-02-12T07:57:56.529Z,102265.71
2019-02-12T08:00:18.169Z,102266.06
2019-02-12T08:02:34.390Z,102269.66
2019-02-12T08:05:05.647Z,102274.73
2019-02-12T08:07:15.952Z,102279.16
2019-02-12T08:09:31.624Z,102274.16
2019-02-12T08:11:53.758Z,102288.67
2019-02-12T08:14:29.920Z,102289.88
2019-02-12T08:16:45.490Z,102287.47
2019-02-12T08:19:04.504Z,102278.53
2019-02-12T08:21:17.583Z,102294.20
2019-02-12T08:23:24.671Z,102300.90
2019-02-12T08:25:49.818Z,102295.73
2019-02-12T08:28:08.889Z,102304.05
2019-02-12T08:30:28.012Z,102297.50
2019-02-12T08:32:46.096Z,102303.56
2019-02-12T08:35:11.767Z,102309.44
2019-02-12T08:37:38.335Z,102315.30
2019-02-12T08:39:48.165Z,102316.17
2019-02-12T08:42:19.469Z,102324.48
2019-02-12T08:44:46.989Z,102325.91
2019-02-12T08:47:28.981Z,102321.23
2019-02-12T08:49:42.077Z,102324.50
2019-02-12T08:52:07.196Z,102328.09
2019-02-12T08:54:35.669Z,102337.31
2019-02-12T08:57:00.657Z,102329.83
2019-02-12T08:59:16.731Z,102343.41
2019-02-12T09:01:40.938Z,102347.34
2019-02-12T09:03:48.007Z,102347.98
2019-02-12T09:06:16.383Z,102347.00
2019-02-12T09:08:37.499Z,102355.48
2019-02-12T09:11:09.001Z,102360.55
2019-02-12T09:13:39.821Z,102359.07
2019-02-12T09:16:11.127Z,102366.09
2019-02-12T09:18:32.313Z,102374.88
2019-02-12T09:20:54.505Z,102379.80
2019-02-12T09:23:20.983Z,102379.97
2019-02-12T09:25:39.494Z,102384.86
2019-02-12T09:28:19.793Z,102392.85
2019-02-12T09:31:11.513Z,102386.97
2019-02-12T09:33:27.516Z,102385.50
2019-02-12T09:35:53.081Z,102391.39
2019-02-12T09:38:31.864Z,102396.94
2019-02-12T09:40:53.971Z,102396.11
2019-02-12T09:43:25.461Z,102399.05
2019-02-12T09:45:58.797Z,102396.78
2019-02-12T09:48:08.766Z,102408.82
2019-02-12T09:50:27.432Z,102402.63
2019-02-12T09:53:06.045Z,102409.66
2019-02-12T09:55:30.820Z,102422.86
2019-02-12T09:57:46.883Z,102421.25
2019-02-12T09:59:53.982Z,102422.53
2019-02-12T10:02:48.420Z,102427.12
2019-02-12T10:05:13.745Z,102436.73
2019-02-12T10:07:35.520Z,102434.28
2019-02-12T10:09:54.349Z,102432.31
2019-02-12T10:12:07.279Z,102441.11
2019-02-12T10:14:29.487Z,102440.15
2019-02-12T10:16:53.170Z,102441.13
2019-02-12T10:19:14.824Z,102441.64
2019-02-12T10:21:30.797Z,102441.33
2019-02-12T10:24:04.835Z,102439.99
2019-02-12T10:26:27.311Z,102448.81
2019-02-12T10:29:12.660Z,102445.38
2019-02-12T10:31:15.738Z,102443.13
2019-02-12T10:33:17.147Z,102438.36
2019-02-12T10:35:18.531Z,102445.22
2019-02-12T10:37:19.897Z,102450.62
2019-02-12T10:39:21.684Z,102450.63
2019-02-12T10:41:23.131Z,102464.99
2019-02-12T10:43:24.499Z,102469.22
2019-02-12T10:45:25.991Z,102464.30
2019-02-12T10:47:27.357Z,102475.08
2019-02-12T10:49:28.743Z,102474.58
2019-02-12T10:51:30.160Z,102473.92
2019-02-12T10:53:31.576Z,102477.35
2019-02-12T10:55:33.001Z,102475.24
2019-02-12T10:57:34.411Z,102464.94
2019-02-12T10:59:35.782Z,102458.28
2019-02-12T11:01:37.158Z,102456.31
2019-02-12T11:03:38.550Z,102458.93
2019-02-12T11:05:39.917Z,102459.59
2019-02-12T11:07:41.334Z,102452.90
2019-02-12T11:09:42.775Z,102461.72
2019-02-12T11:11:44.179Z,102459.12
2019-02-12T11:13:45.545Z,102468.59
2019-02-12T11:15:47.181Z,102466.46
2019-02-12T11:17:48.553Z,102469.40
2019-02-12T11:19:49.956Z,102466.29
2019-02-12T11:21:51.374Z,102469.07
2019-02-12T11:23:52.737Z,102464.31
2019-02-12T11:25:54.326Z,102461.39
2019-02-12T11:27:55.679Z,102463.98
2019-02-12T11:29:57.050Z,102464.81
2019-02-12T11:31:58.487Z,102470.84
2019-02-12T11:33:59.890Z,102463.83
2019-02-12T11:36:01.255Z,102464.98
2019-02-12T11:38:02.627Z,102468.23
2019-02-12T11:40:08.363Z,102471.01
2019-02-12T11:42:09.743Z,102466.78
2019-02-12T11:44:11.152Z,102471.51
2019-02-12T11:46:12.507Z,102470.00
2019-02-12T11:48:13.882Z,102474.23
2019-02-12T11:50:15.273Z,102474.30
2019-02-12T11:52:16.898Z,102474.60
2019-02-12T11:54:18.270Z,102468.00
2019-02-12T11:56:19.674Z,102477.36
2019-02-12T11:58:21.091Z,102469.43
2019-02-12T12:00:27.278Z,102473.08
2019-02-12T12:02:30.565Z,102477.69
2019-02-12T12:04:31.981Z,102479.15
2019-02-12T12:06:33.348Z,102482.77
2019-02-12T12:08:34.722Z,102480.11
2019-02-12T12:10:36.136Z,102486.05
2019-02-12T12:12:37.496Z,102483.65
2019-02-12T12:14:38.907Z,102479.55
2019-02-12T12:16:40.273Z,102485.17
2019-02-12T12:18:41.673Z,102490.28
2019-02-12T12:20:43.082Z,102488.39
2019-02-12T12:22:44.457Z,102490.61
2019-02-12T12:24:51.413Z,102493.19
2019-02-12T12:26:49.231Z,102490.24
2019-02-12T12:28:50.642Z,102492.32
2019-02-12T12:30:52.056Z,102489.84
2019-02-12T12:32:53.442Z,102494.19
2019-02-12T12:34:59.025Z,102498.47
2019-02-12T12:36:58.406Z,102494.34
2019-02-12T12:38:59.754Z,102496.02
2019-02-12T12:41:01.150Z,102500.93
2019-02-12T12:43:02.556Z,102505.64
2019-02-12T12:45:09.444Z,102506.88
2019-02-12T12:47:10.823Z,102502.83
2019-02-12T12:49:12.275Z,102512.67
2019-02-12T12:51:13.669Z,102516.42
2019-02-12T12:53:15.071Z,102514.83
2019-02-12T12:55:16.727Z,102512.04
2019-02-12T12:57:18.117Z,102527.40
2019-02-12T12:59:19.493Z,102528.13
2019-02-12T13:01:20.911Z,102519.82
2019-02-12T13:03:22.271Z,102530.28
2019-02-12T13:05:23.630Z,102534.87
2019-02-12T13:07:25.406Z,102541.72
2019-02-12T13:09:26.863Z,102546.80
2019-02-12T13:11:28.277Z,102545.48
2019-02-12T13:13:29.682Z,102546.13
2019-02-12T13:15:31.056Z,102544.31
2019-02-12T13:17:32.420Z,102542.57
2019-02-12T13:19:33.828Z,102544.48
2019-02-12T13:21:35.197Z,102542.57
2019-02-12T13:23:36.562Z,102540.47
2019-02-12T13:25:37.974Z,102540.73
2019-02-12T13:27:39.350Z,102536.18
2019-02-12T13:29:40.745Z,102537.76
2019-02-12T13:31:42.157Z,102535.56
2019-02-12T13:33:43.594Z,102536.48
2019-02-12T13:35:44.960Z,102534.41
2019-02-12T13:37:46.357Z,102532.59
2019-02-12T13:39:47.757Z,102524.45
2019-02-12T13:41:49.232Z,102531.66
2019-02-12T13:43:50.585Z,102530.60
2019-02-12T13:45:51.950Z,102533.66
2019-02-12T13:47:53.350Z,102537.20
2019-02-12T13:49:54.699Z,102538.27
2019-02-12T13:51:56.054Z,102540.02
2019-02-12T13:53:57.737Z,102540.14
2019-02-12T13:55:59.101Z,102544.97
2019-02-12T13:58:00.475Z,102553.34
2019-02-12T14:00:12.995Z,102556.64
2019-02-12T14:02:14.349Z,102559.27
2019-02-12T14:04:15.781Z,102560.87
2019-02-12T14:06:17.222Z,102563.58
2019-02-12T14:08:18.708Z,102565.52
2019-02-12T14:10:20.117Z,102563.36
2019-02-12T14:12:21.483Z,102564.50
2019-02-12T14:14:22.939Z,102566.29
2019-02-12T14:16:24.313Z,102567.43
2019-02-12T14:18:25.661Z,102579.03
2019-02-12T14:20:27.048Z,102581.52
2019-02-12T14:22:28.456Z,102587.94
2019-02-12T14:24:29.814Z,102581.72
2019-02-12T14:26:31.173Z,102586.78
2019-02-12T14:28:32.570Z,102590.38
2019-02-12T14:30:34.023Z,102598.66
2019-02-12T14:32:35.468Z,102596.16
2019-02-12T14:34:36.860Z,102592.36
2019-02-12T14:36:38.288Z,102596.63
2019-02-12T14:38:39.697Z,102599.03
2019-02-12T14:40:41.123Z,102600.38
2019-02-12T14:42:42.485Z,102600.76
2019-02-12T14:44:43.856Z,102601.25
2019-02-12T14:46:45.274Z,102608.95
2019-02-12T14:48:46.699Z,102600.48
2019-02-12T14:50:48.054Z,102608.16
2019-02-12T14:52:49.432Z,102612.27
2019-02-12T14:54:50.857Z,102607.52
2019-02-12T14:56:52.263Z,102616.20
2019-02-12T14:58:53.649Z,102617.31
2019-02-12T15:00:55.065Z,102617.66
2019-02-12T15:02:56.470Z,102623.55
2019-02-12T15:05:00.504Z,102630.75
2019-02-12T15:07:01.110Z,102629.10
2019-02-12T15:09:04.401Z,102626.00
2019-02-12T15:11:05.828Z,102625.83
2019-02-12T15:13:07.175Z,102635.97
2019-02-12T15:15:09.901Z,102634.99
2019-02-12T15:17:11.265Z,102635.80
2019-02-12T15:19:12.616Z,102640.55
2019-02-12T15:21:14.028Z,102645.11
2019-02-12T15:23:15.455Z,102651.78
2019-02-12T15:25:16.820Z,102651.45
2019-02-12T15:27:18.184Z,102649.48
2019-02-12T15:29:19.573Z,102654.72
2019-02-12T15:31:20.933Z,102655.48
2019-02-12T15:33:22.334Z,102655.77
2019-02-12T15:35:23.691Z,102653.33
2019-02-12T15:37:25.103Z,102647.93
2019-02-12T15:39:26.713Z,102651.20
2019-02-12T15:41:28.080Z,102653.19
2019-02-12T15:43:29.427Z,102655.12
2019-02-12T15:45:30.857Z,102656.87
2019-02-12T15:47:32.235Z,102650.78
2019-02-12T15:49:33.604Z,102654.58
2019-02-12T15:51:35.008Z,102658.77
2019-02-12T15:53:36.375Z,102651.61
2019-02-12T15:55:42.297Z,102652.53
2019-02-12T15:57:43.033Z,102660.70
2019-02-12T15:59:44.309Z,102659.02
2019-02-12T16:01:47.071Z,102656.96
2019-02-12T16:03:48.996Z,102658.99
2019-02-12T16:05:50.419Z,102665.77
2019-02-12T16:07:51.782Z,102664.60
2019-02-12T16:09:54.877Z,102668.03
2019-02-12T16:11:56.546Z,102667.49
2019-02-12T16:13:58.731Z,102667.34
2019-02-12T16:16:00.207Z,102668.81
2019-02-12T16:18:02.530Z,102666.03
2019-02-12T16:20:06.882Z,102668.39
2019-02-12T16:22:08.316Z,102669.31
2019-02-12T16:24:09.693Z,102677.55
2019-02-12T16:26:11.074Z,102681.44
2019-02-12T16:28:12.507Z,102684.67
2019-02-12T16:30:16.393Z,102686.95
2019-02-12T16:32:17.737Z,102689.62
2019-02-12T16:34:19.272Z,102689.25
2019-02-12T16:36:20.625Z,102693.05
2019-02-12T16:38:21.981Z,102694.94
2019-02-12T16:40:23.483Z,102700.68
2019-02-12T16:42:24.881Z,102699.28
2019-02-12T16:44:26.304Z,102704.64
2019-02-12T16:46:27.733Z,102706.69
2019-02-12T16:48:29.149Z,102711.60
2019-02-12T16:50:30.539Z,102715.88
2019-02-12T16:52:31.959Z,102718.78
2019-02-12T16:54:33.321Z,102721.24
2019-02-12T16:56:34.693Z,102719.21
2019-02-12T16:58:36.181Z,102726.94
2019-02-12T17:00:37.552Z,102728.66
2019-02-12T17:02:39.113Z,102733.50
2019-02-12T17:04:40.523Z,102740.81
2019-02-12T17:06:41.947Z,102739.25
2019-02-12T17:08:43.388Z,102745.17
2019-02-12T17:10:44.753Z,102753.70
2019-02-12T17:12:46.125Z,102753.00
2019-02-12T17:14:47.550Z,102754.29
2019-02-12T17:16:48.916Z,102756.00
2019-02-12T17:18:50.330Z,102755.08
2019-02-12T17:20:51.755Z,102759.56
2019-02-12T17:22:53.091Z,102760.28
2019-02-12T17:24:54.568Z,102763.27
2019-02-12T17:26:55.941Z,102763.86
2019-02-12T17:28:57.315Z,102765.65
2019-02-12T17:30:58.736Z,102766.02
2019-02-12T17:33:00.097Z,102768.84
2019-02-12T17:35:01.917Z,102773.20
2019-02-12T17:37:03.591Z,102778.59
2019-02-12T17:39:05.125Z,102783.86
2019-02-12T17:41:06.535Z,102784.09
2019-02-12T17:43:07.951Z,102793.34
2019-02-12T17:45:14.683Z,102792.58
2019-02-12T17:47:16.047Z,102797.99
2019-02-12T17:49:17.454Z,102795.08
2019-02-12T17:51:18.813Z,102793.71
2019-02-12T17:53:20.228Z,102792.84
2019-02-12T17:55:21.637Z,102798.33
2019-02-12T17:57:23.099Z,102805.87
2019-02-12T17:59:24.467Z,102795.34
2019-02-12T18:01:25.805Z,102801.64
2019-02-12T18:03:27.214Z,102806.20
2019-02-12T18:05:28.625Z,102805.20
2019-02-12T18:07:30.040Z,102803.23
2019-02-12T18:09:31.535Z,102805.23
2019-02-12T18:11:32.884Z,102805.73
2019-02-12T18:13:34.247Z,102804.41
2019-02-12T18:15:35.674Z,102807.08
2019-02-12T18:17:37.064Z,102808.75
2019-02-12T18:19:38.419Z,102808.86
2019-02-12T18:21:39.802Z,102807.66
2019-02-12T18:23:41.291Z,102802.66
2019-02-12T18:25:42.608Z,102801.16
2019-02-12T18:27:43.998Z,102800.63
2019-02-12T18:29:45.587Z,102798.34
2019-02-12T18:31:47.050Z,102806.01
2019-02-12T18:33:48.364Z,102798.52
2019-02-12T18:35:50.197Z,102800.60
2019-02-12T18:37:51.521Z,102799.09
2019-02-12T18:39:52.930Z,102800.17
2019-02-12T18:41:54.477Z,102800.17
2019-02-12T18:43:55.856Z,102803.44
2019-02-12T18:45:58.570Z,102805.77
2019-02-12T18:48:00.047Z,102804.53
2019-02-12T18:50:01.962Z,102808.16
2019-02-12T18:52:03.334Z,102807.59
2019-02-12T18:54:04.842Z,102808.73
2019-02-12T18:56:06.227Z,102802.80
2019-02-12T18:58:07.604Z,102805.42
2019-02-12T19:00:18.013Z,102807.77
2019-02-12T19:02:19.446Z,102809.81
2019-02-12T19:04:20.869Z,102812.87
2019-02-12T19:06:22.274Z,102805.88
2019-02-12T19:08:23.641Z,102816.17
2019-02-12T19:10:25.118Z,102810.81
2019-02-12T19:12:26.447Z,102815.66
2019-02-12T19:14:28.125Z,102822.61
2019-02-12T19:16:29.586Z,102821.78
2019-02-12T19:18:30.915Z,102823.57
2019-02-12T19:20:32.365Z,102823.36
2019-02-12T19:22:33.736Z,102823.34
2019-02-12T19:24:35.186Z,102822.94
2019-02-12T19:26:36.547Z,102822.27
2019-02-12T19:28:37.908Z,102821.64
2019-02-12T19:30:39.374Z,102825.86
2019-02-12T19:32:40.700Z,102826.09
2019-02-12T19:34:42.059Z,102827.26
2019-02-12T19:36:43.475Z,102828.92
2019-02-12T19:38:44.827Z,102835.32
2019-02-12T19:40:46.185Z,102835.79
2019-02-12T19:42:47.592Z,102837.27
2019-02-12T19:44:48.978Z,102839.91
2019-02-12T19:46:51.309Z,102840.36
2019-02-12T19:48:54.100Z,102837.66
2019-02-12T19:50:55.590Z,102842.02
2019-02-12T19:52:56.978Z,102835.38
2019-02-12T19:54:58.426Z,102828.53
2019-02-12T19:57:00.196Z,102829.04
2019-02-12T19:59:01.571Z,102826.05
2019-02-12T20:01:03.163Z,102832.98
2019-02-12T20:03:04.684Z,102834.14
2019-02-12T20:05:09.734Z,102834.67
2019-02-12T20:07:11.112Z,102839.29
2019-02-12T20:09:14.379Z,102839.96
2019-02-12T20:11:15.808Z,102841.09
2019-02-12T20:13:17.189Z,102842.77
2019-02-12T20:15:21.148Z,102845.52
2019-02-12T20:17:22.584Z,102849.05
2019-02-12T20:19:23.951Z,102847.59
2019-02-12T20:21:25.327Z,102844.09
2019-02-12T20:23:26.756Z,102844.50
2019-02-12T20:25:28.116Z,102846.80
2019-02-12T20:27:35.760Z,102850.73
2019-02-12T20:29:33.001Z,102855.42
2019-02-12T20:31:34.369Z,102852.09
2019-02-12T20:33:35.728Z,102851.58
2019-02-12T20:35:37.299Z,102848.49
2019-02-12T20:37:38.657Z,102852.52
2019-02-12T20:39:40.023Z,102848.88
2019-02-12T20:41:41.454Z,102844.23
2019-02-12T20:43:42.813Z,102847.41
2019-02-12T20:45:44.191Z,102846.43
2019-02-12T20:47:45.679Z,102848.44
2019-02-12T20:49:47.053Z,102848.41
2019-02-12T20:51:48.400Z,102848.78
2019-02-12T20:53:50.008Z,102856.45
2019-02-12T20:55:51.377Z,102846.77
2019-02-12T20:57:52.736Z,102844.87
2019-02-12T20:59:54.174Z,102846.20
2019-02-12T21:01:55.562Z,102848.92
2019-02-12T21:03:56.903Z,102851.63
2019-02-12T21:05:58.326Z,102855.88
2019-02-12T21:07:59.691Z,102849.70
2019-02-12T21:10:01.094Z,102851.72
2019-02-12T21:12:02.718Z,102847.85
2019-02-12T21:14:04.096Z,102847.41
2019-02-12T21:16:05.767Z,102854.58
2019-02-12T21:18:07.281Z,102848.91
2019-02-12T21:20:10.625Z,102851.64
2019-02-12T21:22:12.018Z,102843.63
2019-02-12T21:24:13.596Z,102841.54
2019-02-12T21:26:14.933Z,102841.48
2019-02-12T21:28:16.281Z,102840.30
2019-02-12T21:30:26.099Z,102844.20
2019-02-12T21:32:27.433Z,102845.56
2019-02-12T21:34:28.800Z,102844.36
2019-02-12T21:36:30.256Z,102838.52
2019-02-12T21:38:31.660Z,102846.41
2019-02-12T21:40:33.007Z,102835.35
2019-02-12T21:42:34.419Z,102844.08
2019-02-12T21:44:35.783Z,102843.73
2019-02-12T21:46:37.197Z,102837.91
2019-02-12T21:48:39.020Z,102834.75
2019-02-12T21:50:40.396Z,102830.63
2019-02-12T21:52:41.771Z,102829.44
2019-02-12T21:54:43.196Z,102839.81
2019-02-12T21:56:44.611Z,102842.57
2019-02-12T21:58:45.993Z,102842.30
2019-02-12T22:00:47.510Z,102842.24
2019-02-12T22:02:48.984Z,102843.50
2019-02-12T22:04:50.348Z,102842.97
2019-02-12T22:06:52.022Z,102845.11
2019-02-12T22:08:53.364Z,102843.08
2019-02-12T22:10:54.725Z,102838.66
2019-02-12T22:12:56.186Z,102840.20
2019-02-12T22:14:57.520Z,102842.27
2019-02-12T22:16:58.878Z,102842.88
2019-02-12T22:19:00.319Z,102841.31
2019-02-12T22:21:01.670Z,102842.52
2019-02-12T22:23:03.080Z,102841.99
2019-02-12T22:25:06.794Z,102846.28
2019-02-12T22:27:08.253Z,102844.72
2019-02-12T22:29:09.703Z,102852.80
2019-02-12T22:31:11.023Z,102854.52
2019-02-12T22:33:12.417Z,102860.03
2019-02-12T22:35:14.670Z,102861.36
2019-02-12T22:37:16.241Z,102856.09
2019-02-12T22:39:17.565Z,102862.30
2019-02-12T22:41:18.980Z,102862.66
2019-02-12T22:43:20.465Z,102868.33
2019-02-12T22:45:23.553Z,102860.37
2019-02-12T22:47:24.947Z,102860.97
2019-02-12T22:49:26.395Z,102860.63
2019-02-12T22:51:27.788Z,102862.98
2019-02-12T22:53:29.176Z,102860.58
2019-02-12T22:55:30.519Z,102863.76
2019-02-12T22:57:31.970Z,102863.44
2019-02-12T22:59:33.337Z,102864.15
2019-02-12T23:01:36.483Z,102860.53
2019-02-12T23:03:37.893Z,102859.14
2019-02-12T23:05:39.300Z,102859.93
2019-02-12T23:07:40.916Z,102860.12
2019-02-12T23:09:42.315Z,102859.99
2019-02-12T23:11:43.692Z,102862.30
2019-02-12T23:13:45.095Z,102861.65
2019-02-12T23:15:46.485Z,102862.40
2019-02-12T23:17:47.867Z,102859.57
2019-02-12T23:19:49.279Z,102863.64
2019-02-12T23:21:50.649Z,102865.89
2019-02-12T23:23:52.066Z,102861.23
2019-02-12T23:25:53.855Z,102853.30
2019-02-12T23:27:57.777Z,102858.03
2019-02-12T23:29:58.614Z,102855.78
2019-02-12T23:32:00.036Z,102850.24
2019-02-12T23:34:01.462Z,102845.87
2019-02-12T23:36:02.829Z,102844.48
2019-02-12T23:38:04.251Z,102850.41
2019-02-12T23:40:07.323Z,102848.64
2019-02-12T23:42:08.737Z,102849.28
2019-02-12T23:44:10.213Z,102849.11
2019-02-12T23:46:11.568Z,102848.98
2019-02-12T23:48:12.941Z,102847.42
2019-02-12T23:50:14.401Z,102849.64
2019-02-12T23:52:15.775Z,102850.16
2019-02-12T23:54:17.191Z,102848.19
2019-02-12T23:56:18.611Z,102856.18
2019-02-12T23:58:20.086Z,102847.75
